Alpena, Arkansas
Current Conditions -  °F | °C
As of 8:21 AM on Tuesday 21 Oct 2014 (Local Time) from KHRO Reporting Station
Haze Haze  
Wind Chill: 55°   Ceiling: Unl
Heat Index: 55°   Visibility: 3mi
Dew Point: 55°   Wind: 5mph
Humidity: 100%   Direction: 250°WSW
Pressure: 30.13"   Gusts: NA
Location:  36.29°N, 93.29°W
Report Text: KHRO 211321Z AUTO 25004KT 3SM BR CLR 13/13 A3013 RMK AO2 T01280128
Loading
Personal Weather Stations






























Interactive Weather Map
Tropical Storm Tracking
New forecast layout! Learn more

10-Day Weather Forecast

Advertisements
Track Severe Weather on mobile